sensor_id;sensor_type;location;lat;lon;timestamp;pressure;altitude;pressure_sealevel;temperature;humidity
79589;BME280;69067;51.930;4.492;2024-03-23T00:54:21;101066.56;;;24.01;36.90
79589;BME280;69067;51.930;4.492;2024-03-23T00:56:47;101055.91;;;24.00;36.58
79589;BME280;69067;51.930;4.492;2024-03-23T00:59:13;101046.47;;;23.95;36.93
79589;BME280;69067;51.930;4.492;2024-03-23T01:01:39;101043.75;;;23.95;36.68
79589;BME280;69067;51.930;4.492;2024-03-23T01:04:06;101040.81;;;23.90;37.25
79589;BME280;69067;51.930;4.492;2024-03-23T01:06:31;101039.38;;;23.94;37.25
79589;BME280;69067;51.930;4.492;2024-03-23T01:08:57;101042.34;;;24.06;37.41
79589;BME280;69067;51.930;4.492;2024-03-23T01:11:23;101038.09;;;23.90;36.96
79589;BME280;69067;51.930;4.492;2024-03-23T01:13:49;101037.28;;;24.03;37.00
79589;BME280;69067;51.930;4.492;2024-03-23T01:16:14;101036.84;;;23.93;36.90
79589;BME280;69067;51.930;4.492;2024-03-23T01:18:41;101038.53;;;24.01;36.61
79589;BME280;69067;51.930;4.492;2024-03-23T01:21:07;101027.03;;;23.92;37.43
79589;BME280;69067;51.930;4.492;2024-03-23T01:23:33;101029.94;;;23.90;37.25
79589;BME280;69067;51.930;4.492;2024-03-23T01:25:58;101033.72;;;23.96;36.93
79589;BME280;69067;51.930;4.492;2024-03-23T01:28:24;101037.09;;;24.05;37.07
79589;BME280;69067;51.930;4.492;2024-03-23T01:30:50;101031.84;;;23.97;36.99
79589;BME280;69067;51.930;4.492;2024-03-23T01:33:16;101023.25;;;24.00;37.32
79589;BME280;69067;51.930;4.492;2024-03-23T01:35:41;101034.38;;;23.98;37.45
79589;BME280;69067;51.930;4.492;2024-03-23T01:38:07;101031.00;;;24.03;37.10
79589;BME280;69067;51.930;4.492;2024-03-23T01:40:33;101028.91;;;23.91;37.12
79589;BME280;69067;51.930;4.492;2024-03-23T01:43:03;101029.31;;;23.95;36.95
79589;BME280;69067;51.930;4.492;2024-03-23T01:45:31;101031.84;;;23.97;37.29
79589;BME280;69067;51.930;4.492;2024-03-23T01:47:57;101020.13;;;23.96;36.86
79589;BME280;69067;51.930;4.492;2024-03-23T01:50:24;101024.06;;;23.93;36.59
79589;BME280;69067;51.930;4.492;2024-03-23T01:52:50;101025.56;;;23.89;37.64
79589;BME280;69067;51.930;4.492;2024-03-23T01:55:17;101028.06;;;23.91;37.40
79589;BME280;69067;51.930;4.492;2024-03-23T01:57:42;101020.28;;;23.81;37.39
79589;BME280;69067;51.930;4.492;2024-03-23T02:00:09;101027.41;;;23.82;37.33
79589;BME280;69067;51.930;4.492;2024-03-23T02:02:47;101022.16;;;23.74;37.30
79589;BME280;69067;51.930;4.492;2024-03-23T02:05:13;101023.63;;;23.77;37.41
79589;BME280;69067;51.930;4.492;2024-03-23T02:07:41;101023.44;;;23.72;37.59
79589;BME280;69067;51.930;4.492;2024-03-23T02:10:09;101008.75;;;23.73;37.27
79589;BME280;69067;51.930;4.492;2024-03-23T02:12:36;101015.28;;;23.72;37.69
79589;BME280;69067;51.930;4.492;2024-03-23T02:15:03;101011.28;;;23.74;37.55
79589;BME280;69067;51.930;4.492;2024-03-23T02:17:31;101005.84;;;23.74;36.89
79589;BME280;69067;51.930;4.492;2024-03-23T02:19:59;100999.75;;;23.72;37.26
79589;BME280;69067;51.930;4.492;2024-03-23T02:22:33;101002.94;;;23.82;37.19
79589;BME280;69067;51.930;4.492;2024-03-23T02:25:03;100999.19;;;23.83;37.36
79589;BME280;69067;51.930;4.492;2024-03-23T02:27:33;100995.63;;;23.83;37.11
79589;BME280;69067;51.930;4.492;2024-03-23T02:30:00;100996.47;;;23.83;36.95
79589;BME280;69067;51.930;4.492;2024-03-23T02:32:25;100990.19;;;23.83;36.91
79589;BME280;69067;51.930;4.492;2024-03-23T02:34:51;100993.31;;;23.80;37.69
79589;BME280;69067;51.930;4.492;2024-03-23T02:37:17;100994.13;;;23.80;37.83
79589;BME280;69067;51.930;4.492;2024-03-23T02:39:42;100990.38;;;23.88;37.09
79589;BME280;69067;51.930;4.492;2024-03-23T02:42:08;100997.06;;;23.79;36.96
79589;BME280;69067;51.930;4.492;2024-03-23T02:44:34;101001.25;;;23.81;36.86
79589;BME280;69067;51.930;4.492;2024-03-23T02:47:00;100995.59;;;23.76;37.19
79589;BME280;69067;51.930;4.492;2024-03-23T02:49:26;100994.13;;;23.80;37.41
79589;BME280;69067;51.930;4.492;2024-03-23T02:51:52;100982.66;;;23.78;37.37
79589;BME280;69067;51.930;4.492;2024-03-23T02:54:18;100982.00;;;23.70;37.44
79589;BME280;69067;51.930;4.492;2024-03-23T02:56:44;100989.13;;;23.71;37.47
79589;BME280;69067;51.930;4.492;2024-03-23T02:59:09;100982.00;;;23.76;36.81
79589;BME280;69067;51.930;4.492;2024-03-23T03:01:35;100982.84;;;23.77;37.35
79589;BME280;69067;51.930;4.492;2024-03-23T03:04:01;100986.59;;;23.76;37.36
79589;BME280;69067;51.930;4.492;2024-03-23T03:06:27;100973.66;;;23.71;37.48
79589;BME280;69067;51.930;4.492;2024-03-23T03:08:53;100971.34;;;23.75;37.58
79589;BME280;69067;51.930;4.492;2024-03-23T03:11:19;100971.53;;;23.73;37.14
79589;BME280;69067;51.930;4.492;2024-03-23T03:13:45;100972.19;;;23.75;37.21
79589;BME280;69067;51.930;4.492;2024-03-23T03:16:11;100968.19;;;23.65;37.70
79589;BME280;69067;51.930;4.492;2024-03-23T03:18:37;100977.19;;;23.72;37.07
79589;BME280;69067;51.930;4.492;2024-03-23T03:21:03;100976.94;;;23.60;37.34
79589;BME280;69067;51.930;4.492;2024-03-23T03:23:34;100984.53;;;23.78;37.31
79589;BME280;69067;51.930;4.492;2024-03-23T03:25:59;100975.28;;;23.72;36.93
79589;BME280;69067;51.930;4.492;2024-03-23T03:28:25;100973.19;;;23.61;37.87
79589;BME280;69067;51.930;4.492;2024-03-23T03:30:56;100971.94;;;23.64;37.28
79589;BME280;69067;51.930;4.492;2024-03-23T03:33:22;100972.38;;;23.74;37.63
79589;BME280;69067;51.930;4.492;2024-03-23T03:35:48;100974.88;;;23.69;37.34
79589;BME280;69067;51.930;4.492;2024-03-23T03:38:13;100965.66;;;23.63;37.52
79589;BME280;69067;51.930;4.492;2024-03-23T03:40:41;100967.94;;;23.60;37.81
79589;BME280;69067;51.930;4.492;2024-03-23T03:43:07;100967.78;;;23.74;36.84
79589;BME280;69067;51.930;4.492;2024-03-23T03:45:33;100971.94;;;23.64;37.25
79589;BME280;69067;51.930;4.492;2024-03-23T03:47:58;100963.56;;;23.65;37.45
79589;BME280;69067;51.930;4.492;2024-03-23T03:50:24;100960.22;;;23.57;37.62
79589;BME280;69067;51.930;4.492;2024-03-23T03:52:50;100953.50;;;23.59;37.46
79589;BME280;69067;51.930;4.492;2024-03-23T03:55:16;100954.78;;;23.57;37.76
79589;BME280;69067;51.930;4.492;2024-03-23T03:57:42;100938.69;;;23.55;37.80
79589;BME280;69067;51.930;4.492;2024-03-23T04:00:08;100943.72;;;23.65;37.17
79589;BME280;69067;51.930;4.492;2024-03-23T04:02:38;100937.44;;;23.58;37.13
79589;BME280;69067;51.930;4.492;2024-03-23T04:05:04;100944.31;;;23.53;37.21
79589;BME280;69067;51.930;4.492;2024-03-23T04:07:30;100943.47;;;23.53;38.00
79589;BME280;69067;51.930;4.492;2024-03-23T04:09:56;100938.81;;;23.47;37.33
79589;BME280;69067;51.930;4.492;2024-03-23T04:12:21;100942.22;;;23.49;38.19
79589;BME280;69067;51.930;4.492;2024-03-23T04:14:48;100932.19;;;23.49;37.19
79589;BME280;69067;51.930;4.492;2024-03-23T04:17:14;100935.53;;;23.58;37.48
79589;BME280;69067;51.930;4.492;2024-03-23T04:19:39;100934.84;;;23.43;37.95
79589;BME280;69067;51.930;4.492;2024-03-23T04:22:05;100935.75;;;23.50;37.67
79589;BME280;69067;51.930;4.492;2024-03-23T04:24:30;100936.16;;;23.60;37.07
79589;BME280;69067;51.930;4.492;2024-03-23T04:26:58;100935.31;;;23.53;38.14
79589;BME280;69067;51.930;4.492;2024-03-23T04:29:24;100936.78;;;23.49;37.83
79589;BME280;69067;51.930;4.492;2024-03-23T04:31:49;100936.16;;;23.53;37.44
79589;BME280;69067;51.930;4.492;2024-03-23T04:34:15;100941.13;;;23.43;37.40
79589;BME280;69067;51.930;4.492;2024-03-23T04:36:42;100935.53;;;23.58;37.22
79589;BME280;69067;51.930;4.492;2024-03-23T04:39:08;100932.56;;;23.46;37.65
79589;BME280;69067;51.930;4.492;2024-03-23T04:41:35;100928.44;;;23.50;37.43
79589;BME280;69067;51.930;4.492;2024-03-23T04:44:00;100935.97;;;23.55;37.01
79589;BME280;69067;51.930;4.492;2024-03-23T04:46:27;100936.78;;;23.49;37.75
79589;BME280;69067;51.930;4.492;2024-03-23T04:48:52;100929.69;;;23.61;37.13
79589;BME280;69067;51.930;4.492;2024-03-23T04:51:22;100929.28;;;23.51;37.83
79589;BME280;69067;51.930;4.492;2024-03-23T04:53:48;100932.81;;;23.58;37.87
79589;BME280;69067;51.930;4.492;2024-03-23T04:56:15;100935.31;;;23.60;37.81
79589;BME280;69067;51.930;4.492;2024-03-23T04:58:43;100938.88;;;23.60;37.53
79589;BME280;69067;51.930;4.492;2024-03-23T05:01:10;100934.50;;;23.59;36.86
79589;BME280;69067;51.930;4.492;2024-03-23T05:03:36;100934.28;;;23.61;37.37
79589;BME280;69067;51.930;4.492;2024-03-23T05:06:02;100936.81;;;23.62;36.96
79589;BME280;69067;51.930;4.492;2024-03-23T05:08:28;100938.31;;;23.71;37.54
79589;BME280;69067;51.930;4.492;2024-03-23T05:10:54;100938.88;;;23.53;37.78
79589;BME280;69067;51.930;4.492;2024-03-23T05:13:19;100945.78;;;23.49;37.18
79589;BME280;69067;51.930;4.492;2024-03-23T05:15:52;100937.22;;;23.66;37.35
79589;BME280;69067;51.930;4.492;2024-03-23T05:18:21;100941.41;;;23.62;36.74
79589;BME280;69067;51.930;4.492;2024-03-23T05:20:47;100942.25;;;23.69;37.20
79589;BME280;69067;51.930;4.492;2024-03-23T05:23:12;100940.97;;;23.58;37.21
79589;BME280;69067;51.930;4.492;2024-03-23T05:25:39;100939.34;;;23.70;37.01
79589;BME280;69067;51.930;4.492;2024-03-23T05:28:05;100943.50;;;23.73;37.60
79589;BME280;69067;51.930;4.492;2024-03-23T05:30:32;100940.56;;;23.68;36.54
79589;BME280;69067;51.930;4.492;2024-03-23T05:32:57;100936.19;;;23.73;37.62
79589;BME280;69067;51.930;4.492;2024-03-23T05:35:23;100928.66;;;23.69;36.49
79589;BME280;69067;51.930;4.492;2024-03-23T05:37:49;100934.31;;;23.74;36.47
79589;BME280;69067;51.930;4.492;2024-03-23T05:40:14;100934.31;;;23.74;36.79
79589;BME280;69067;51.930;4.492;2024-03-23T05:42:40;100934.94;;;23.76;36.64
79589;BME280;69067;51.930;4.492;2024-03-23T05:45:07;100930.34;;;23.70;36.84
79589;BME280;69067;51.930;4.492;2024-03-23T05:47:33;100933.88;;;23.64;36.98
79589;BME280;69067;51.930;4.492;2024-03-23T05:49:59;100935.78;;;23.63;37.66
79589;BME280;69067;51.930;4.492;2024-03-23T05:52:24;100933.28;;;23.75;37.01
79589;BME280;69067;51.930;4.492;2024-03-23T05:54:51;100935.56;;;23.65;37.43
79589;BME280;69067;51.930;4.492;2024-03-23T05:57:18;100928.84;;;23.61;37.45
79589;BME280;69067;51.930;4.492;2024-03-23T05:59:44;100931.78;;;23.59;37.13
79589;BME280;69067;51.930;4.492;2024-03-23T06:02:10;100934.50;;;23.72;37.30
79589;BME280;69067;51.930;4.492;2024-03-23T06:04:36;100941.00;;;23.71;36.79
79589;BME280;69067;51.930;4.492;2024-03-23T06:07:01;100928.84;;;23.54;36.96
79589;BME280;69067;51.930;4.492;2024-03-23T06:09:27;100935.34;;;23.66;36.94
79589;BME280;69067;51.930;4.492;2024-03-23T06:11:53;100933.47;;;23.67;36.78
79589;BME280;69067;51.930;4.492;2024-03-23T06:14:18;100935.97;;;23.68;37.11
79589;BME280;69067;51.930;4.492;2024-03-23T06:16:44;100938.06;;;23.73;36.67
79589;BME280;69067;51.930;4.492;2024-03-23T06:19:10;100932.63;;;23.66;36.81
79589;BME280;69067;51.930;4.492;2024-03-23T06:21:36;100930.53;;;23.62;36.98
79589;BME280;69067;51.930;4.492;2024-03-23T06:24:01;100928.44;;;23.64;36.77
79589;BME280;69067;51.930;4.492;2024-03-23T06:26:27;100935.56;;;23.65;36.83
79589;BME280;69067;51.930;4.492;2024-03-23T06:28:53;100946.66;;;23.70;36.97
79589;BME280;69067;51.930;4.492;2024-03-23T06:31:19;100937.63;;;23.56;37.71
79589;BME280;69067;51.930;4.492;2024-03-23T06:33:45;100933.03;;;23.57;37.66
79589;BME280;69067;51.930;4.492;2024-03-23T06:36:11;100936.81;;;23.69;37.05
79589;BME280;69067;51.930;4.492;2024-03-23T06:38:38;100940.97;;;23.58;36.99
79589;BME280;69067;51.930;4.492;2024-03-23T06:41:08;100936.78;;;23.55;37.78
79589;BME280;69067;51.930;4.492;2024-03-23T06:43:35;100939.94;;;23.59;36.84
79589;BME280;69067;51.930;4.492;2024-03-23T06:46:03;100942.25;;;23.69;36.93
79589;BME280;69067;51.930;4.492;2024-03-23T06:48:30;100932.38;;;23.48;36.75
79589;BME280;69067;51.930;4.492;2024-03-23T06:50:57;100936.19;;;23.67;37.00
79589;BME280;69067;51.930;4.492;2024-03-23T06:53:23;100930.91;;;23.52;37.04
79589;BME280;69067;51.930;4.492;2024-03-23T06:55:53;100939.09;;;23.65;36.92
79589;BME280;69067;51.930;4.492;2024-03-23T06:58:24;100941.59;;;23.60;37.08
79589;BME280;69067;51.930;4.492;2024-03-23T07:00:50;100946.47;;;23.71;36.26
79589;BME280;69067;51.930;4.492;2024-03-23T07:03:17;100943.06;;;23.49;36.77
79589;BME280;69067;51.930;4.492;2024-03-23T07:05:43;100943.72;;;23.65;37.38
79589;BME280;69067;51.930;4.492;2024-03-23T07:08:11;100947.03;;;23.53;37.41
79589;BME280;69067;51.930;4.492;2024-03-23T07:10:41;100943.47;;;23.60;36.91
79589;BME280;69067;51.930;4.492;2024-03-23T07:13:10;100947.91;;;23.67;37.27
79589;BME280;69067;51.930;4.492;2024-03-23T07:15:36;100944.34;;;23.80;36.95
79589;BME280;69067;51.930;4.492;2024-03-23T07:18:02;100938.25;;;23.58;36.57
79589;BME280;69067;51.930;4.492;2024-03-23T07:20:28;100938.28;;;23.65;36.76
79589;BME280;69067;51.930;4.492;2024-03-23T07:22:56;100946.84;;;23.68;36.27
79589;BME280;69067;51.930;4.492;2024-03-23T07:25:22;100947.66;;;23.55;36.55
79589;BME280;69067;51.930;4.492;2024-03-23T07:27:48;100939.31;;;23.57;37.19
79589;BME280;69067;51.930;4.492;2024-03-23T07:30:14;100947.25;;;23.59;36.67
79589;BME280;69067;51.930;4.492;2024-03-23T07:32:40;100941.41;;;23.62;36.75
79589;BME280;69067;51.930;4.492;2024-03-23T07:35:06;100947.69;;;23.69;36.54
79589;BME280;69067;51.930;4.492;2024-03-23T07:37:32;100946.66;;;23.63;36.95
79589;BME280;69067;51.930;4.492;2024-03-23T07:39:57;100946.66;;;23.63;36.58
79589;BME280;69067;51.930;4.492;2024-03-23T07:42:25;100937.03;;;23.67;36.78
79589;BME280;69067;51.930;4.492;2024-03-23T07:44:52;100935.97;;;23.62;36.62
79589;BME280;69067;51.930;4.492;2024-03-23T07:47:17;100937.00;;;23.61;36.91
79589;BME280;69067;51.930;4.492;2024-03-23T07:49:43;100942.63;;;23.52;36.96
79589;BME280;69067;51.930;4.492;2024-03-23T07:52:10;100940.03;;;23.38;37.55
79589;BME280;69067;51.930;4.492;2024-03-23T07:54:37;100937.31;;;23.38;37.74
79589;BME280;69067;51.930;4.492;2024-03-23T07:57:02;100935.91;;;23.42;37.59
79589;BME280;69067;51.930;4.492;2024-03-23T07:59:28;100929.84;;;23.46;37.42
79589;BME280;69067;51.930;4.492;2024-03-23T08:01:57;100936.38;;;23.65;36.59
79589;BME280;69067;51.930;4.492;2024-03-23T08:04:23;100938.03;;;23.53;36.47
79589;BME280;69067;51.930;4.492;2024-03-23T08:06:48;100944.25;;;23.40;37.57
79589;BME280;69067;51.930;4.492;2024-03-23T08:09:14;100936.09;;;23.47;36.79
79589;BME280;69067;51.930;4.492;2024-03-23T08:11:40;100938.81;;;23.40;37.57
79589;BME280;69067;51.930;4.492;2024-03-23T08:14:09;100943.41;;;23.40;37.38
79589;BME280;69067;51.930;4.492;2024-03-23T08:16:35;100941.50;;;23.34;37.58
79589;BME280;69067;51.930;4.492;2024-03-23T08:19:02;100936.47;;;23.31;39.01
79589;BME280;69067;51.930;4.492;2024-03-23T08:21:29;100932.88;;;23.24;39.15
79589;BME280;69067;51.930;4.492;2024-03-23T08:23:55;100935.44;;;23.32;39.15
79589;BME280;69067;51.930;4.492;2024-03-23T08:26:22;100947.13;;;23.32;38.16
79589;BME280;69067;51.930;4.492;2024-03-23T08:28:48;100947.97;;;23.33;38.06
79589;BME280;69067;51.930;4.492;2024-03-23T08:31:14;100940.03;;;23.38;38.72
79589;BME280;69067;51.930;4.492;2024-03-23T08:33:42;100937.97;;;23.40;37.97
79589;BME280;69067;51.930;4.492;2024-03-23T08:36:09;100934.41;;;23.33;38.96
79589;BME280;69067;51.930;4.492;2024-03-23T08:38:40;100939.66;;;23.41;37.95
79589;BME280;69067;51.930;4.492;2024-03-23T08:41:10;100924.56;;;23.32;38.42
79589;BME280;69067;51.930;4.492;2024-03-23T08:43:38;100934.59;;;23.38;38.69
79589;BME280;69067;51.930;4.492;2024-03-23T08:46:09;100933.56;;;23.39;37.73
79589;BME280;69067;51.930;4.492;2024-03-23T08:48:39;100936.28;;;23.39;38.16
79589;BME280;69067;51.930;4.492;2024-03-23T08:51:07;100931.66;;;23.26;38.24
79589;BME280;69067;51.930;4.492;2024-03-23T08:53:38;100940.25;;;23.30;38.53
79589;BME280;69067;51.930;4.492;2024-03-23T08:56:05;100935.94;;;23.48;37.53
79589;BME280;69067;51.930;4.492;2024-03-23T08:58:34;100936.28;;;23.39;38.61
79589;BME280;69067;51.930;4.492;2024-03-23T09:01:06;100941.72;;;23.32;37.68
79589;BME280;69067;51.930;4.492;2024-03-23T09:03:36;100943.38;;;23.33;38.17
79589;BME280;69067;51.930;4.492;2024-03-23T09:06:08;100936.47;;;23.31;37.65
79589;BME280;69067;51.930;4.492;2024-03-23T09:08:34;100944.84;;;23.29;38.50
79589;BME280;69067;51.930;4.492;2024-03-23T09:11:15;100941.50;;;23.34;37.99
79589;BME280;69067;51.930;4.492;2024-03-23T09:13:41;100941.91;;;23.31;38.41
79589;BME280;69067;51.930;4.492;2024-03-23T09:16:09;100942.56;;;23.39;37.98
79589;BME280;69067;51.930;4.492;2024-03-23T09:18:36;100934.81;;;23.30;38.16
79589;BME280;69067;51.930;4.492;2024-03-23T09:21:12;100944.69;;;23.44;37.76
79589;BME280;69067;51.930;4.492;2024-03-23T09:23:44;100940.47;;;23.35;37.44
79589;BME280;69067;51.930;4.492;2024-03-23T09:26:12;100936.47;;;23.31;37.56
79589;BME280;69067;51.930;4.492;2024-03-23T09:28:44;100932.97;;;23.37;38.04
79589;BME280;69067;51.930;4.492;2024-03-23T09:31:09;100941.53;;;23.40;37.95
79589;BME280;69067;51.930;4.492;2024-03-23T09:33:40;100933.78;;;23.37;37.38
79589;BME280;69067;51.930;4.492;2024-03-23T09:36:07;100934.22;;;23.41;37.95
79589;BME280;69067;51.930;4.492;2024-03-23T09:38:33;100932.50;;;23.33;37.82
79589;BME280;69067;51.930;4.492;2024-03-23T09:40:59;100939.19;;;23.37;37.65
79589;BME280;69067;51.930;4.492;2024-03-23T09:43:25;100945.06;;;23.34;37.82
79589;BME280;69067;51.930;4.492;2024-03-23T09:45:52;100941.13;;;23.37;36.95
79589;BME280;69067;51.930;4.492;2024-03-23T09:48:18;100945.72;;;23.43;37.27
79589;BME280;69067;51.930;4.492;2024-03-23T09:50:45;100938.78;;;23.34;37.35
79589;BME280;69067;51.930;4.492;2024-03-23T09:53:15;100940.03;;;23.38;37.63
79589;BME280;69067;51.930;4.492;2024-03-23T09:55:42;100937.09;;;23.33;37.31
79589;BME280;69067;51.930;4.492;2024-03-23T09:58:14;100929.19;;;23.38;36.81
79589;BME280;69067;51.930;4.492;2024-03-23T10:00:41;100923.19;;;23.49;36.56
79589;BME280;69067;51.930;4.492;2024-03-23T10:03:07;100933.19;;;23.42;36.82
79589;BME280;69067;51.930;4.492;2024-03-23T10:05:34;100928.56;;;23.42;37.39
79589;BME280;69067;51.930;4.492;2024-03-23T10:08:19;100912.03;;;23.37;36.90
79589;BME280;69067;51.930;4.492;2024-03-23T10:10:46;100917.91;;;23.41;36.61
79589;BME280;69067;51.930;4.492;2024-03-23T10:13:27;100914.56;;;23.39;37.28
79589;BME280;69067;51.930;4.492;2024-03-23T10:15:56;100936.78;;;23.49;36.75
79589;BME280;69067;51.930;4.492;2024-03-23T10:18:24;100935.91;;;23.42;37.10
79589;BME280;69067;51.930;4.492;2024-03-23T10:21:06;100933.34;;;23.34;36.61
79589;BME280;69067;51.930;4.492;2024-03-23T10:23:33;100921.47;;;23.41;37.42
79589;BME280;69067;51.930;4.492;2024-03-23T10:28:58;100923.13;;;23.36;37.25
79589;BME280;69067;51.930;4.492;2024-03-23T10:31:37;100909.56;;;23.42;37.00
79589;BME280;69067;51.930;4.492;2024-03-23T10:34:03;100919.38;;;23.43;36.73
79589;BME280;69067;51.930;4.492;2024-03-23T10:36:30;100913.50;;;23.40;36.48
79589;BME280;69067;51.930;4.492;2024-03-23T10:38:56;100918.72;;;23.35;37.18
79589;BME280;69067;51.930;4.492;2024-03-23T10:41:27;100926.25;;;23.33;37.60
79589;BME280;69067;51.930;4.492;2024-03-23T10:43:55;100908.72;;;23.42;37.37
79589;BME280;69067;51.930;4.492;2024-03-23T10:46:23;100908.50;;;23.37;36.99
79589;BME280;69067;51.930;4.492;2024-03-23T10:48:49;100920.44;;;23.42;37.51
79589;BME280;69067;51.930;4.492;2024-03-23T10:51:15;100916.44;;;23.45;36.89
79589;BME280;69067;51.930;4.492;2024-03-23T10:53:41;100907.22;;;23.33;37.65
79589;BME280;69067;51.930;4.492;2024-03-23T10:56:08;100914.34;;;23.34;37.66
79589;BME280;69067;51.930;4.492;2024-03-23T10:58:43;100923.31;;;23.34;37.35
79589;BME280;69067;51.930;4.492;2024-03-23T11:01:12;100910.16;;;23.38;37.46
79589;BME280;69067;51.930;4.492;2024-03-23T11:03:45;100913.09;;;23.36;38.06
79589;BME280;69067;51.930;4.492;2024-03-23T11:06:37;100910.78;;;23.40;37.75
79589;BME280;69067;51.930;4.492;2024-03-23T11:09:40;100912.03;;;23.37;38.32
79589;BME280;69067;51.930;4.492;2024-03-23T11:14:47;100902.00;;;23.38;37.33
79589;BME280;69067;51.930;4.492;2024-03-23T11:17:23;100894.94;;;23.43;37.62
79589;BME280;69067;51.930;4.492;2024-03-23T11:20:04;100908.72;;;23.42;37.62
79589;BME280;69067;51.930;4.492;2024-03-23T11:22:44;100905.34;;;23.40;38.39
79589;BME280;69067;51.930;4.492;2024-03-23T11:27:55;100908.06;;;23.40;38.36
79589;BME280;69067;51.930;4.492;2024-03-23T11:30:27;100902.44;;;23.41;37.63
79589;BME280;69067;51.930;4.492;2024-03-23T11:32:57;100894.50;;;23.46;37.37
79589;BME280;69067;51.930;4.492;2024-03-23T11:40:38;100896.22;;;23.47;37.36
79589;BME280;69067;51.930;4.492;2024-03-23T11:43:08;100891.63;;;23.48;37.59
79589;BME280;69067;51.930;4.492;2024-03-23T11:45:42;100897.06;;;23.48;37.06
79589;BME280;69067;51.930;4.492;2024-03-23T11:48:11;100887.03;;;23.48;36.89
79589;BME280;69067;51.930;4.492;2024-03-23T11:50:41;100881.13;;;23.45;36.67
79589;BME280;69067;51.930;4.492;2024-03-23T11:53:16;100876.16;;;23.48;36.14
79589;BME280;69067;51.930;4.492;2024-03-23T11:58:17;100875.94;;;23.50;36.33
79589;BME280;69067;51.930;4.492;2024-03-23T12:03:20;100878.66;;;23.50;36.40
79589;BME280;69067;51.930;4.492;2024-03-23T12:05:51;100875.50;;;23.53;36.84
79589;BME280;69067;51.930;4.492;2024-03-23T12:08:29;100871.97;;;23.52;36.03
79589;BME280;69067;51.930;4.492;2024-03-23T12:13:41;100867.38;;;23.53;36.12
79589;BME280;69067;51.930;4.492;2024-03-23T12:16:17;100855.88;;;23.51;36.50
79589;BME280;69067;51.930;4.492;2024-03-23T12:18:49;100860.03;;;23.53;36.97
79589;BME280;69067;51.930;4.492;2024-03-23T12:21:17;100848.53;;;23.51;36.11
79589;BME280;69067;51.930;4.492;2024-03-23T12:23:43;100853.16;;;23.51;35.95
79589;BME280;69067;51.930;4.492;2024-03-23T12:26:14;100847.09;;;23.55;35.92
79589;BME280;69067;51.930;4.492;2024-03-23T12:28:39;100850.84;;;23.54;35.87
79589;BME280;69067;51.930;4.492;2024-03-23T12:31:05;100845.00;;;23.58;36.72
79589;BME280;69067;51.930;4.492;2024-03-23T12:33:31;100847.28;;;23.54;36.33
79589;BME280;69067;51.930;4.492;2024-03-23T12:35:57;100842.28;;;23.58;36.13
79589;BME280;69067;51.930;4.492;2024-03-23T12:38:23;100842.91;;;23.53;36.37
79589;BME280;69067;51.930;4.492;2024-03-23T12:40:51;100843.53;;;23.55;35.82
79589;BME280;69067;51.930;4.492;2024-03-23T12:43:18;100839.34;;;23.59;35.65
79589;BME280;69067;51.930;4.492;2024-03-23T12:45:47;100843.53;;;23.55;36.40
79589;BME280;69067;51.930;4.492;2024-03-23T12:48:13;100839.78;;;23.56;35.73
79589;BME280;69067;51.930;4.492;2024-03-23T12:50:39;100831.19;;;23.52;36.37
79589;BME280;69067;51.930;4.492;2024-03-23T12:53:04;100837.47;;;23.60;35.84
79589;BME280;69067;51.930;4.492;2024-03-23T12:55:30;100830.16;;;23.60;35.82
79589;BME280;69067;51.930;4.492;2024-03-23T12:57:56;100824.31;;;23.57;35.34
79589;BME280;69067;51.930;4.492;2024-03-23T13:00:22;100831.44;;;23.58;35.20
79589;BME280;69067;51.930;4.492;2024-03-23T13:02:48;100830.59;;;23.57;35.62
79589;BME280;69067;51.930;4.492;2024-03-23T13:05:13;100823.47;;;23.63;35.57
79589;BME280;69067;51.930;4.492;2024-03-23T13:07:39;100827.63;;;23.59;36.22
79589;BME280;69067;51.930;4.492;2024-03-23T13:10:05;100818.44;;;23.60;35.58
79589;BME280;69067;51.930;4.492;2024-03-23T13:12:32;100815.53;;;23.61;35.26
79589;BME280;69067;51.930;4.492;2024-03-23T13:14:59;100825.56;;;23.54;35.44
79589;BME280;69067;51.930;4.492;2024-03-23T13:17:26;100830.34;;;23.65;35.88
79589;BME280;69067;51.930;4.492;2024-03-23T13:19:55;100816.75;;;23.59;35.59
79589;BME280;69067;51.930;4.492;2024-03-23T13:22:21;100826.78;;;23.58;35.73
79589;BME280;69067;51.930;4.492;2024-03-23T13:24:47;100809.25;;;23.61;35.26
79589;BME280;69067;51.930;4.492;2024-03-23T13:27:13;100826.00;;;23.64;34.85
79589;BME280;69067;51.930;4.492;2024-03-23T13:29:39;100808.84;;;23.57;35.44
79589;BME280;69067;51.930;4.492;2024-03-23T13:32:05;100828.28;;;23.61;35.41
79589;BME280;69067;51.930;4.492;2024-03-23T13:34:32;100827.22;;;23.62;35.47
79589;BME280;69067;51.930;4.492;2024-03-23T13:36:58;100823.03;;;23.59;34.87
79589;BME280;69067;51.930;4.492;2024-03-23T13:39:25;100826.59;;;23.60;35.80
79589;BME280;69067;51.930;4.492;2024-03-23T13:41:53;100821.34;;;23.58;35.27
79589;BME280;69067;51.930;4.492;2024-03-23T13:44:20;100811.97;;;23.61;34.76
79589;BME280;69067;51.930;4.492;2024-03-23T13:46:45;100823.47;;;23.63;35.27
79589;BME280;69067;51.930;4.492;2024-03-23T13:49:31;100836.63;;;23.59;35.62
79589;BME280;69067;51.930;4.492;2024-03-23T13:52:00;100837.91;;;23.57;35.27
79589;BME280;69067;51.930;4.492;2024-03-23T13:54:26;100841.03;;;23.60;35.44
79589;BME280;69067;51.930;4.492;2024-03-23T13:56:54;100843.94;;;23.59;35.77
79589;BME280;69067;51.930;4.492;2024-03-23T13:59:21;100838.31;;;23.60;34.86
79589;BME280;69067;51.930;4.492;2024-03-23T14:01:48;100842.91;;;23.60;35.42
79589;BME280;69067;51.930;4.492;2024-03-23T14:04:14;100841.03;;;23.60;35.40
79589;BME280;69067;51.930;4.492;2024-03-23T14:06:44;100828.91;;;23.56;35.43